»·PEaware :: N153MS KREI-KMYF

N153MS :: KREI-KMYF

FLIGHT INFORMATION

Flight Status: Arrived
Operator: Privately registered:
United States
More flights under this callsign
Pilot: Shane N. (25833)
Aircraft: MOONEY M-20K/M ENCORE BRAVO
(M20T)
More flights by this aircraft type
Origin: KREI Redlands Mun
United States
Destination: KMYF Montgomery
United States
More flights between these airports :: More routes between these airports
Route: +PDZ V186 HAILE V66 MZB
File this flight plan on PilotEdge
Remarks: TEC Route ONTP12
Altitude:
(Current/Filed)
9,000ft
Speed:
(Current/Filed)
175kts
Departed: 22-Aug-20 11:57 AM
Arrived: 22-Aug-20 12:34 PM
Distance/Time
Traveled:
76nm/0:36
Distance/Time
To Go:
Arrived

Flight Plot

Page will automatically refresh every two minutes.


Map Options




Map Legend


Flown Route
Filed Route
Departure Airport
Arrival Airport
Navaid (VOR, NDB)
Fix

Horizontal Profiles

Position Reports

Time Latitude Longitude Heading Altitude Ground
Speed
22-Aug-20 11:37 34.084725 -117.144887 93 1571ft 0kts
22-Aug-20 11:38 34.084725 -117.144887 93 1571ft 0kts
22-Aug-20 11:39 34.084725 -117.144887 93 1571ft 0kts
22-Aug-20 11:40 34.084725 -117.144887 93 1571ft 0kts
22-Aug-20 11:41 34.084725 -117.144887 93 1571ft 0kts
22-Aug-20 11:42 34.084725 -117.144887 93 1571ft 0kts
22-Aug-20 11:43 34.084725 -117.144887 93 1571ft 0kts
22-Aug-20 11:44 34.084725 -117.144887 93 1571ft 0kts
22-Aug-20 11:45 34.084725 -117.144887 93 1571ft 0kts
22-Aug-20 11:46 34.084725 -117.144887 93 1571ft 0kts
22-Aug-20 11:47 34.084725 -117.144887 93 1571ft 0kts
22-Aug-20 11:48 34.084725 -117.144887 93 1571ft 0kts
22-Aug-20 11:49 34.084725 -117.144887 93 1571ft 0kts
22-Aug-20 11:50 34.084725 -117.144887 93 1571ft 0kts
22-Aug-20 11:51 34.084725 -117.144887 93 1571ft 0kts
22-Aug-20 11:52 34.084725 -117.144887 93 1571ft 0kts
22-Aug-20 11:53 34.084861 -117.141120 90 1571ft 13kts
22-Aug-20 11:54 34.084889 -117.139373 74 1571ft 0kts
22-Aug-20 11:55 34.085295 -117.139769 272 1571ft 29kts
22-Aug-20 11:56 34.078440 -117.172042 235 2430ft 125kts
22-Aug-20 11:57 34.061353 -117.208689 241 4097ft 128kts
22-Aug-20 11:58 34.044250 -117.246928 242 5733ft 133kts
22-Aug-20 11:59 34.026551 -117.286730 242 7348ft 138kts
22-Aug-20 12:00 34.008161 -117.328110 242 8898ft 147kts
22-Aug-20 12:01 33.983712 -117.383518 243 8979ft 213kts
22-Aug-20 12:02 33.954690 -117.448825 242 8976ft 225kts
22-Aug-20 12:03 33.919259 -117.509178 193 8968ft 227kts
22-Aug-20 12:04 33.862922 -117.482331 144 8977ft 221kts
22-Aug-20 12:05 33.812230 -117.441046 142 8984ft 219kts
22-Aug-20 12:06 33.762778 -117.399740 142 8994ft 215kts
22-Aug-20 12:07 33.713752 -117.358775 142 9000ft 213kts
22-Aug-20 12:08 33.665145 -117.318221 142 9002ft 213kts
22-Aug-20 12:09 33.616602 -117.277779 142 9003ft 212kts
22-Aug-20 12:10 33.567941 -117.237294 142 8994ft 213kts
22-Aug-20 12:11 33.518817 -117.196473 142 8974ft 215kts
22-Aug-20 12:12 33.466712 -117.161185 163 8969ft 220kts
22-Aug-20 12:13 33.406104 -117.146573 167 8983ft 224kts
22-Aug-20 12:14 33.344485 -117.133407 167 8986ft 226kts
22-Aug-20 12:15 33.284858 -117.111370 151 8610ft 227kts
22-Aug-20 12:16 33.230368 -117.078138 151 7687ft 202kts
22-Aug-20 12:17 33.185460 -117.048907 151 7005ft 179kts
22-Aug-20 12:19 33.140843 -117.019376 151 7008ft 187kts
22-Aug-20 12:20 33.095321 -116.988877 151 7005ft 186kts
22-Aug-20 12:21 33.050724 -116.958497 151 7011ft 184kts
22-Aug-20 12:22 33.006656 -116.928008 151 7017ft 183kts
22-Aug-20 12:23 32.962314 -116.896727 151 6469ft 184kts
22-Aug-20 12:24 32.918433 -116.865078 151 5755ft 184kts
22-Aug-20 12:25 32.868624 -116.862020 181 5050ft 179kts
22-Aug-20 12:26 32.818782 -116.862669 181 4437ft 180kts
22-Aug-20 12:27 32.769111 -116.863393 183 3790ft 170kts
22-Aug-20 12:28 32.742324 -116.905518 255 3456ft 169kts
22-Aug-20 12:29 32.747245 -116.960410 288 3117ft 174kts
22-Aug-20 12:30 32.766875 -117.012285 290 2849ft 169kts
22-Aug-20 12:31 32.786187 -117.062941 289 2215ft 143kts
22-Aug-20 12:32 32.799562 -117.096965 285 1181ft 88kts
22-Aug-20 12:33 32.809796 -117.123136 285 703ft 86kts
22-Aug-20 12:34 32.816018 -117.140437 243 420ft 0kts
22-Aug-20 12:35 32.815079 -117.141989 204 417ft 10kts
22-Aug-20 12:36 32.814983 -117.142028 183 417ft 3kts
22-Aug-20 12:37 32.813290 -117.140609 111 417ft 0kts
22-Aug-20 12:37 32.813290 -117.140609 111 417ft 0kts
22-Aug-20 12:39 32.813290 -117.140609 111 417ft 0kts
22-Aug-20 12:39 32.813290 -117.140609 111 417ft 0kts

Navigation Log

Ident Type
Flight plan parsing failed, navigation log unavailable